createdAt,value
2019-01-12T19:44:32.374Z,42.90
2019-01-12T19:47:00.798Z,40.70
2019-01-12T19:49:29.154Z,46.83
2019-01-12T19:51:57.505Z,40.27
2019-01-12T19:54:25.779Z,42.10
2019-01-12T19:56:54.076Z,41.07
2019-01-12T19:59:22.375Z,42.90
2019-01-12T20:01:50.710Z,40.57
2019-01-12T20:04:19.121Z,33.83
2019-01-12T20:06:47.458Z,40.03
2019-01-12T20:09:15.735Z,36.07
2019-01-12T20:11:44.016Z,30.07
2019-01-12T20:14:12.277Z,28.70
2019-01-12T20:16:40.787Z,31.63
2019-01-12T20:19:09.181Z,26.43
2019-01-12T20:21:37.532Z,30.83
2019-01-12T20:24:05.804Z,36.73
2019-01-12T20:26:34.193Z,36.23
2019-01-12T20:29:02.486Z,37.67
2019-01-12T20:31:42.888Z,31.23
2019-01-12T20:34:14.481Z,26.50
2019-01-12T20:37:04.159Z,25.10
2019-01-12T20:40:02.790Z,25.93
2019-01-12T20:42:45.907Z,29.60
2019-01-12T20:45:20.268Z,27.90
2019-01-12T20:48:08.853Z,28.00
2019-01-12T20:50:48.594Z,29.90
2019-01-12T20:53:37.456Z,28.73
2019-01-12T20:56:09.204Z,29.53
2019-01-12T20:58:40.807Z,33.00
2019-01-12T21:01:33.435Z,35.93
2019-01-12T21:04:13.964Z,27.13
2019-01-12T21:06:53.867Z,23.67
2019-01-12T21:09:34.358Z,26.23
2019-01-12T21:12:37.459Z,33.37
2019-01-12T21:15:09.084Z,32.47
2019-01-12T21:17:37.362Z,40.93
2019-01-12T21:20:08.652Z,42.47
2019-01-12T21:22:36.946Z,36.33
2019-01-12T21:25:07.457Z,41.73
2019-01-12T21:27:35.763Z,39.10
2019-01-12T21:30:10.074Z,42.20
2019-01-12T21:32:38.439Z,37.47
2019-01-12T21:35:08.811Z,37.77
2019-01-12T21:37:37.128Z,42.43
2019-01-12T21:40:08.804Z,69.70
2019-01-12T21:42:37.146Z,40.67
2019-01-12T21:45:08.697Z,38.37
2019-01-12T21:47:37.089Z,37.20
2019-01-12T21:50:08.802Z,41.07
2019-01-12T21:52:37.130Z,37.77
2019-01-12T21:55:07.708Z,44.67
2019-01-12T21:57:36.355Z,44.63
2019-01-12T22:00:16.487Z,42.17
2019-01-12T22:02:44.834Z,42.63
2019-01-12T22:05:13.469Z,36.80
2019-01-12T22:07:41.765Z,36.67
2019-01-12T22:10:19.251Z,39.43
2019-01-12T22:12:45.611Z,35.73
2019-01-12T22:15:16.836Z,38.93
2019-01-12T22:17:45.120Z,38.83
2019-01-12T22:20:15.816Z,40.43
2019-01-12T22:22:44.316Z,37.13
2019-01-12T22:25:12.597Z,40.30
2019-01-12T22:27:41.350Z,42.10
2019-01-12T22:30:15.822Z,43.43
2019-01-12T22:32:44.098Z,43.50
2019-01-12T22:35:12.379Z,40.83
2019-01-12T22:37:40.749Z,41.30
2019-01-12T22:40:15.557Z,40.03
2019-01-12T22:42:43.848Z,34.90
2019-01-12T22:45:12.127Z,36.60
2019-01-12T22:47:40.439Z,32.43
2019-01-12T22:50:11.705Z,34.77
2019-01-12T22:52:59.492Z,41.00
2019-01-12T22:55:27.815Z,34.70
2019-01-12T22:57:56.090Z,33.73
2019-01-12T23:00:46.123Z,32.00
2019-01-12T23:03:14.411Z,35.77
2019-01-12T23:05:42.871Z,34.07
2019-01-12T23:08:11.350Z,37.33
2019-01-12T23:10:39.632Z,37.57
2019-01-12T23:13:08.079Z,34.07
2019-01-12T23:15:36.507Z,36.20
2019-01-12T23:18:05.152Z,32.57
2019-01-12T23:20:33.479Z,34.30
2019-01-12T23:23:01.853Z,31.87
2019-01-12T23:25:30.203Z,32.93
2019-01-12T23:27:58.489Z,29.17
2019-01-12T23:30:26.767Z,34.37
2019-01-12T23:32:55.236Z,36.53
2019-01-12T23:35:23.982Z,36.13
2019-01-12T23:37:52.412Z,36.80
2019-01-12T23:40:20.773Z,39.37
2019-01-12T23:42:49.057Z,40.33
2019-01-12T23:45:17.354Z,37.63
2019-01-12T23:47:45.702Z,37.73
2019-01-12T23:50:14.247Z,36.00
2019-01-12T23:52:42.596Z,39.13
2019-01-12T23:55:10.875Z,38.73
2019-01-12T23:57:39.228Z,40.07
